
<gpx xmlns="http://www.topografix.com/GPX/1/1" xmlns:gpxx="http://www.garmin.com/xmlschemas/GpxExtensions/v3" xmlns:xsi="http://www.w3.org/2001/XMLSchema-instance" version="1.1" creator="Adze - https://getadze.com/" xsi:schemaLocation="http://www.topografix.com/GPX/1/1 http://www.topografix.com/GPX/1/1/gpx.xsd http://www.garmin.com/xmlschemas/GpxExtensions/v3 http://www.garmin.com/xmlschemas/GpxExtensionsv3.xsd">
    <metadata>
        <name>Untitled Document</name>
        <link href="http://www.garmin.com"></link>
        <time>2018-03-08T08:07:17.322Z</time>
    </metadata>
    <wpt lon="100.849288" lat="15.007298">
        <time>2010-11-22T02:35:19Z</time>
        <name>Narai Hill</name>
        <sym>Lodging</sym>
        <extensions>
            <gpxx:WaypointExtension xmlns:gpxx="http://www.garmin.com/xmlschemas/GpxExtensions/v3">
                <gpxx:DisplayMode>SymbolOnly</gpxx:DisplayMode>
            </gpxx:WaypointExtension>
        </extensions>
    </wpt>
    <trk>
        <name>November 2010 - Saturday</name>
        <extensions>
            <gpxx:TrackExtension xmlns:gpxx="http://www.garmin.com/xmlschemas/GpxExtensions/v3">
                <gpxx:DisplayColor>Red</gpxx:DisplayColor>
            </gpxx:TrackExtension>
        </extensions>
        <trkseg>
            <trkpt lon="100.849347" lat="15.007161">
                <ele>143.600006</ele>
                <time>2010-11-20T05:29:08Z</time>
            </trkpt>
            <trkpt lon="100.849091" lat="15.007392">
                <ele>143.199997</ele>
                <time>2010-11-20T05:29:49Z</time>
            </trkpt>
            <trkpt lon="100.848916" lat="15.007188">
                <ele>142.000000</ele>
                <time>2010-11-20T05:29:57Z</time>
            </trkpt>
            <trkpt lon="100.849311" lat="15.006595">
                <ele>143.199997</ele>
                <time>2010-11-20T05:30:14Z</time>
            </trkpt>
            <trkpt lon="100.849213" lat="15.005961">
                <ele>147.800003</ele>
                <time>2010-11-20T05:30:52Z</time>
            </trkpt>
            <trkpt lon="100.849376" lat="15.004713">
                <ele>159.600006</ele>
                <time>2010-11-20T05:31:28Z</time>
            </trkpt>
            <trkpt lon="100.849101" lat="15.003830">
                <ele>168.000000</ele>
                <time>2010-11-20T05:31:56Z</time>
            </trkpt>
            <trkpt lon="100.849104" lat="15.003596">
                <ele>170.000000</ele>
                <time>2010-11-20T05:32:03Z</time>
            </trkpt>
            <trkpt lon="100.849207" lat="15.003232">
                <ele>172.600006</ele>
                <time>2010-11-20T05:32:14Z</time>
            </trkpt>
            <trkpt lon="100.849572" lat="15.002205">
                <ele>178.800003</ele>
                <time>2010-11-20T05:32:45Z</time>
            </trkpt>
            <trkpt lon="100.850826" lat="15.002746">
                <ele>167.199997</ele>
                <time>2010-11-20T05:33:03Z</time>
            </trkpt>
            <trkpt lon="100.852657" lat="15.003275">
                <ele>148.199997</ele>
                <time>2010-11-20T05:33:20Z</time>
            </trkpt>
            <trkpt lon="100.853250" lat="15.004973">
                <ele>132.600006</ele>
                <time>2010-11-20T05:34:10Z</time>
            </trkpt>
            <trkpt lon="100.854545" lat="15.006213">
                <ele>122.199997</ele>
                <time>2010-11-20T05:34:27Z</time>
            </trkpt>
            <trkpt lon="100.855110" lat="15.007076">
                <ele>120.199997</ele>
                <time>2010-11-20T05:34:38Z</time>
            </trkpt>
            <trkpt lon="100.855367" lat="15.007059">
                <ele>120.800003</ele>
                <time>2010-11-20T05:34:42Z</time>
            </trkpt>
            <trkpt lon="100.855759" lat="15.006718">
                <ele>123.400002</ele>
                <time>2010-11-20T05:34:50Z</time>
            </trkpt>
            <trkpt lon="100.856642" lat="15.006074">
                <ele>124.400002</ele>
                <time>2010-11-20T05:35:08Z</time>
            </trkpt>
            <trkpt lon="100.857511" lat="15.005467">
                <ele>122.199997</ele>
                <time>2010-11-20T05:35:21Z</time>
            </trkpt>
            <trkpt lon="100.858082" lat="15.005301">
                <ele>118.800003</ele>
                <time>2010-11-20T05:36:48Z</time>
            </trkpt>
            <trkpt lon="100.858611" lat="15.006313">
                <ele>110.400002</ele>
                <time>2010-11-20T05:37:16Z</time>
            </trkpt>
            <trkpt lon="100.858907" lat="15.006562">
                <ele>106.400002</ele>
                <time>2010-11-20T05:37:23Z</time>
            </trkpt>
            <trkpt lon="100.859576" lat="15.006635">
                <ele>103.599998</ele>
                <time>2010-11-20T05:37:32Z</time>
            </trkpt>
            <trkpt lon="100.860530" lat="15.006206">
                <ele>105.199997</ele>
                <time>2010-11-20T05:38:17Z</time>
            </trkpt>
            <trkpt lon="100.861186" lat="15.006501">
                <ele>104.599998</ele>
                <time>2010-11-20T05:38:30Z</time>
            </trkpt>
            <trkpt lon="100.861495" lat="15.006783">
                <ele>103.400002</ele>
                <time>2010-11-20T05:38:36Z</time>
            </trkpt>
            <trkpt lon="100.861601" lat="15.007979">
                <ele>98.400002</ele>
                <time>2010-11-20T05:38:49Z</time>
            </trkpt>
            <trkpt lon="100.861846" lat="15.008366">
                <ele>97.199997</ele>
                <time>2010-11-20T05:38:56Z</time>
            </trkpt>
            <trkpt lon="100.862511" lat="15.008929">
                <ele>92.800003</ele>
                <time>2010-11-20T05:39:10Z</time>
            </trkpt>
            <trkpt lon="100.864260" lat="15.008524">
                <ele>93.000000</ele>
                <time>2010-11-20T05:39:37Z</time>
            </trkpt>
            <trkpt lon="100.865796" lat="15.007784">
                <ele>94.599998</ele>
                <time>2010-11-20T05:40:32Z</time>
            </trkpt>
            <trkpt lon="100.866240" lat="15.007855">
                <ele>95.000000</ele>
                <time>2010-11-20T05:41:11Z</time>
            </trkpt>
            <trkpt lon="100.866765" lat="15.008224">
                <ele>95.199997</ele>
                <time>2010-11-20T05:41:24Z</time>
            </trkpt>
            <trkpt lon="100.867280" lat="15.008898">
                <ele>94.800003</ele>
                <time>2010-11-20T05:41:44Z</time>
            </trkpt>
            <trkpt lon="100.868818" lat="15.008576">
                <ele>95.599998</ele>
                <time>2010-11-20T05:42:19Z</time>
            </trkpt>
            <trkpt lon="100.869868" lat="15.009631">
                <ele>98.199997</ele>
                <time>2010-11-20T05:42:53Z</time>
            </trkpt>
            <trkpt lon="100.870131" lat="15.008985">
                <ele>97.400002</ele>
                <time>2010-11-20T05:43:06Z</time>
            </trkpt>
            <trkpt lon="100.870392" lat="15.008731">
                <ele>98.000000</ele>
                <time>2010-11-20T05:43:11Z</time>
            </trkpt>
            <trkpt lon="100.870681" lat="15.008657">
                <ele>98.800003</ele>
                <time>2010-11-20T05:43:16Z</time>
            </trkpt>
            <trkpt lon="100.870917" lat="15.008496">
                <ele>99.400002</ele>
                <time>2010-11-20T05:43:21Z</time>
            </trkpt>
            <trkpt lon="100.871131" lat="15.007860">
                <ele>98.000000</ele>
                <time>2010-11-20T05:43:33Z</time>
            </trkpt>
            <trkpt lon="100.871771" lat="15.007435">
                <ele>97.599998</ele>
                <time>2010-11-20T05:43:46Z</time>
            </trkpt>
            <trkpt lon="100.872362" lat="15.006714">
                <ele>100.400002</ele>
                <time>2010-11-20T05:44:00Z</time>
            </trkpt>
            <trkpt lon="100.872742" lat="15.006346">
                <ele>100.400002</ele>
                <time>2010-11-20T05:44:08Z</time>
            </trkpt>
            <trkpt lon="100.873253" lat="15.006233">
                <ele>100.800003</ele>
                <time>2010-11-20T05:44:26Z</time>
            </trkpt>
            <trkpt lon="100.873733" lat="15.005885">
                <ele>101.400002</ele>
                <time>2010-11-20T05:45:08Z</time>
            </trkpt>
            <trkpt lon="100.874675" lat="15.005903">
                <ele>105.400002</ele>
                <time>2010-11-20T05:45:26Z</time>
            </trkpt>
            <trkpt lon="100.875545" lat="15.005770">
                <ele>105.800003</ele>
                <time>2010-11-20T05:45:43Z</time>
            </trkpt>
            <trkpt lon="100.876919" lat="15.006274">
                <ele>108.199997</ele>
                <time>2010-11-20T05:46:10Z</time>
            </trkpt>
            <trkpt lon="100.877546" lat="15.006619">
                <ele>108.800003</ele>
                <time>2010-11-20T05:46:34Z</time>
            </trkpt>
            <trkpt lon="100.878047" lat="15.006519">
                <ele>109.599998</ele>
                <time>2010-11-20T05:47:10Z</time>
            </trkpt>
            <trkpt lon="100.878352" lat="15.006635">
                <ele>110.800003</ele>
                <time>2010-11-20T05:47:19Z</time>
            </trkpt>
            <trkpt lon="100.878943" lat="15.008720">
                <ele>115.400002</ele>
                <time>2010-11-20T05:48:19Z</time>
            </trkpt>
            <trkpt lon="100.878005" lat="15.008856">
                <ele>115.000000</ele>
                <time>2010-11-20T05:49:00Z</time>
            </trkpt>
            <trkpt lon="100.877570" lat="15.009070">
                <ele>115.800003</ele>
                <time>2010-11-20T05:49:14Z</time>
            </trkpt>
            <trkpt lon="100.877275" lat="15.009181">
                <ele>115.800003</ele>
                <time>2010-11-20T05:49:24Z</time>
            </trkpt>
            <trkpt lon="100.877385" lat="15.011086">
                <ele>111.599998</ele>
                <time>2010-11-20T05:50:06Z</time>
            </trkpt>
            <trkpt lon="100.877036" lat="15.011642">
                <ele>111.000000</ele>
                <time>2010-11-20T05:50:25Z</time>
            </trkpt>
            <trkpt lon="100.877083" lat="15.011743">
                <ele>110.800003</ele>
                <time>2010-11-20T05:50:29Z</time>
            </trkpt>
            <trkpt lon="100.877366" lat="15.012165">
                <ele>109.800003</ele>
                <time>2010-11-20T05:51:34Z</time>
            </trkpt>
            <trkpt lon="100.877370" lat="15.012637">
                <ele>108.599998</ele>
                <time>2010-11-20T05:51:47Z</time>
            </trkpt>
            <trkpt lon="100.876921" lat="15.012861">
                <ele>108.400002</ele>
                <time>2010-11-20T05:52:11Z</time>
            </trkpt>
            <trkpt lon="100.876713" lat="15.013151">
                <ele>108.000000</ele>
                <time>2010-11-20T05:52:22Z</time>
            </trkpt>
            <trkpt lon="100.875988" lat="15.013146">
                <ele>108.000000</ele>
                <time>2010-11-20T05:52:36Z</time>
            </trkpt>
            <trkpt lon="100.875710" lat="15.013142">
                <ele>107.800003</ele>
                <time>2010-11-20T05:52:40Z</time>
            </trkpt>
            <trkpt lon="100.874929" lat="15.013248">
                <ele>106.599998</ele>
                <time>2010-11-20T05:52:52Z</time>
            </trkpt>
            <trkpt lon="100.874962" lat="15.014332">
                <ele>105.599998</ele>
                <time>2010-11-20T05:53:08Z</time>
            </trkpt>
            <trkpt lon="100.875822" lat="15.016531">
                <ele>111.599998</ele>
                <time>2010-11-20T05:53:56Z</time>
            </trkpt>
            <trkpt lon="100.875299" lat="15.016680">
                <ele>110.000000</ele>
                <time>2010-11-20T05:54:45Z</time>
            </trkpt>
            <trkpt lon="100.876082" lat="15.018623">
                <ele>125.599998</ele>
                <time>2010-11-20T05:56:17Z</time>
            </trkpt>
            <trkpt lon="100.875864" lat="15.018727">
                <ele>127.400002</ele>
                <time>2010-11-20T05:56:30Z</time>
            </trkpt>
            <trkpt lon="100.875149" lat="15.018826">
                <ele>125.599998</ele>
                <time>2010-11-20T05:57:01Z</time>
            </trkpt>
            <trkpt lon="100.875476" lat="15.018668">
                <ele>124.800003</ele>
                <time>2010-11-20T05:57:14Z</time>
            </trkpt>
            <trkpt lon="100.874860" lat="15.017164">
                <ele>111.800003</ele>
                <time>2010-11-20T05:57:47Z</time>
            </trkpt>
            <trkpt lon="100.874925" lat="15.017336">
                <ele>113.400002</ele>
                <time>2010-11-20T05:58:16Z</time>
            </trkpt>
            <trkpt lon="100.874389" lat="15.017587">
                <ele>112.400002</ele>
                <time>2010-11-20T05:58:39Z</time>
            </trkpt>
            <trkpt lon="100.875475" lat="15.017154">
                <ele>113.400002</ele>
                <time>2010-11-20T05:59:31Z</time>
            </trkpt>
            <trkpt lon="100.875324" lat="15.016622">
                <ele>110.000000</ele>
                <time>2010-11-20T05:59:50Z</time>
            </trkpt>
            <trkpt lon="100.876221" lat="15.016320">
                <ele>111.800003</ele>
                <time>2010-11-20T06:01:05Z</time>
            </trkpt>
            <trkpt lon="100.878342" lat="15.016404">
                <ele>114.199997</ele>
                <time>2010-11-20T06:02:24Z</time>
            </trkpt>
            <trkpt lon="100.879005" lat="15.016476">
                <ele>112.000000</ele>
                <time>2010-11-20T06:03:05Z</time>
            </trkpt>
            <trkpt lon="100.878275" lat="15.016414">
                <ele>114.199997</ele>
                <time>2010-11-20T06:04:27Z</time>
            </trkpt>
            <trkpt lon="100.877296" lat="15.016392">
                <ele>113.199997</ele>
                <time>2010-11-20T06:04:57Z</time>
            </trkpt>
            <trkpt lon="100.876935" lat="15.016256">
                <ele>112.599998</ele>
                <time>2010-11-20T06:05:07Z</time>
            </trkpt>
            <trkpt lon="100.876282" lat="15.016292">
                <ele>111.800003</ele>
                <time>2010-11-20T06:07:27Z</time>
            </trkpt>
            <trkpt lon="100.874820" lat="15.016813">
                <ele>109.199997</ele>
                <time>2010-11-20T06:08:29Z</time>
            </trkpt>
            <trkpt lon="100.874805" lat="15.017133">
                <ele>111.400002</ele>
                <time>2010-11-20T06:08:46Z</time>
            </trkpt>
            <trkpt lon="100.875406" lat="15.018746">
                <ele>125.800003</ele>
                <time>2010-11-20T06:10:14Z</time>
            </trkpt>
            <trkpt lon="100.875116" lat="15.018859">
                <ele>126.000000</ele>
                <time>2010-11-20T06:11:06Z</time>
            </trkpt>
            <trkpt lon="100.875960" lat="15.018677">
                <ele>126.599998</ele>
                <time>2010-11-20T06:11:35Z</time>
            </trkpt>
            <trkpt lon="100.876097" lat="15.018572">
                <ele>124.599998</ele>
                <time>2010-11-20T06:11:40Z</time>
            </trkpt>
            <trkpt lon="100.875274" lat="15.016621">
                <ele>109.800003</ele>
                <time>2010-11-20T06:12:16Z</time>
            </trkpt>
            <trkpt lon="100.875766" lat="15.016354">
                <ele>111.000000</ele>
                <time>2010-11-20T06:12:31Z</time>
            </trkpt>
            <trkpt lon="100.874942" lat="15.014269">
                <ele>105.599998</ele>
                <time>2010-11-20T06:13:03Z</time>
            </trkpt>
            <trkpt lon="100.875025" lat="15.013139">
                <ele>106.800003</ele>
                <time>2010-11-20T06:13:49Z</time>
            </trkpt>
            <trkpt lon="100.873679" lat="15.013289">
                <ele>103.800003</ele>
                <time>2010-11-20T06:15:24Z</time>
            </trkpt>
            <trkpt lon="100.873798" lat="15.013228">
                <ele>104.199997</ele>
                <time>2010-11-20T06:15:33Z</time>
            </trkpt>
            <trkpt lon="100.873920" lat="15.012614">
                <ele>105.199997</ele>
                <time>2010-11-20T06:15:51Z</time>
            </trkpt>
            <trkpt lon="100.874170" lat="15.010915">
                <ele>103.000000</ele>
                <time>2010-11-20T06:17:02Z</time>
            </trkpt>
            <trkpt lon="100.873883" lat="15.012579">
                <ele>105.199997</ele>
                <time>2010-11-20T06:18:20Z</time>
            </trkpt>
            <trkpt lon="100.873755" lat="15.013343">
                <ele>104.000000</ele>
                <time>2010-11-20T06:19:13Z</time>
            </trkpt>
            <trkpt lon="100.873883" lat="15.014602">
                <ele>102.599998</ele>
                <time>2010-11-20T06:19:44Z</time>
            </trkpt>
            <trkpt lon="100.875395" lat="15.018596">
                <ele>123.199997</ele>
                <time>2010-11-20T06:22:27Z</time>
            </trkpt>
            <trkpt lon="100.875613" lat="15.018740">
                <ele>126.599998</ele>
                <time>2010-11-20T06:22:39Z</time>
            </trkpt>
            <trkpt lon="100.876512" lat="15.018889">
                <ele>132.000000</ele>
                <time>2010-11-20T06:23:14Z</time>
            </trkpt>
            <trkpt lon="100.877142" lat="15.018851">
                <ele>132.000000</ele>
                <time>2010-11-20T06:23:56Z</time>
            </trkpt>
            <trkpt lon="100.877743" lat="15.018636">
                <ele>126.000000</ele>
                <time>2010-11-20T06:24:25Z</time>
            </trkpt>
            <trkpt lon="100.878129" lat="15.018802">
                <ele>127.599998</ele>
                <time>2010-11-20T06:25:05Z</time>
            </trkpt>
            <trkpt lon="100.879054" lat="15.018808">
                <ele>124.000000</ele>
                <time>2010-11-20T06:25:32Z</time>
            </trkpt>
            <trkpt lon="100.879541" lat="15.018575">
                <ele>117.800003</ele>
                <time>2010-11-20T06:25:53Z</time>
            </trkpt>
            <trkpt lon="100.879438" lat="15.018612">
                <ele>119.000000</ele>
                <time>2010-11-20T06:26:00Z</time>
            </trkpt>
            <trkpt lon="100.880370" lat="15.019271">
                <ele>114.599998</ele>
                <time>2010-11-20T06:27:49Z</time>
            </trkpt>
            <trkpt lon="100.880777" lat="15.020004">
                <ele>113.000000</ele>
                <time>2010-11-20T06:28:06Z</time>
            </trkpt>
            <trkpt lon="100.883401" lat="15.019900">
                <ele>105.599998</ele>
                <time>2010-11-20T06:28:43Z</time>
            </trkpt>
            <trkpt lon="100.883449" lat="15.020792">
                <ele>107.000000</ele>
                <time>2010-11-20T06:29:00Z</time>
            </trkpt>
            <trkpt lon="100.883753" lat="15.021376">
                <ele>109.800003</ele>
                <time>2010-11-20T06:29:11Z</time>
            </trkpt>
            <trkpt lon="100.884733" lat="15.023006">
                <ele>110.400002</ele>
                <time>2010-11-20T06:29:41Z</time>
            </trkpt>
            <trkpt lon="100.884667" lat="15.024974">
                <ele>119.400002</ele>
                <time>2010-11-20T06:30:22Z</time>
            </trkpt>
            <trkpt lon="100.884637" lat="15.025363">
                <ele>119.199997</ele>
                <time>2010-11-20T06:30:31Z</time>
            </trkpt>
            <trkpt lon="100.884551" lat="15.028208">
                <ele>113.000000</ele>
                <time>2010-11-20T06:31:13Z</time>
            </trkpt>
            <trkpt lon="100.884691" lat="15.029436">
                <ele>111.199997</ele>
                <time>2010-11-20T06:31:27Z</time>
            </trkpt>
            <trkpt lon="100.884827" lat="15.030021">
                <ele>109.400002</ele>
                <time>2010-11-20T06:31:40Z</time>
            </trkpt>
            <trkpt lon="100.883577" lat="15.030242">
                <ele>113.000000</ele>
                <time>2010-11-20T06:32:07Z</time>
            </trkpt>
            <trkpt lon="100.882614" lat="15.030148">
                <ele>116.199997</ele>
                <time>2010-11-20T06:32:25Z</time>
            </trkpt>
            <trkpt lon="100.882211" lat="15.030156">
                <ele>116.199997</ele>
                <time>2010-11-20T06:32:32Z</time>
            </trkpt>
            <trkpt lon="100.879864" lat="15.030671">
                <ele>116.400002</ele>
                <time>2010-11-20T06:33:09Z</time>
            </trkpt>
            <trkpt lon="100.875888" lat="15.030728">
                <ele>125.000000</ele>
                <time>2010-11-20T06:34:15Z</time>
            </trkpt>
            <trkpt lon="100.875743" lat="15.035134">
                <ele>107.400002</ele>
                <time>2010-11-20T06:36:11Z</time>
            </trkpt>
            <trkpt lon="100.875081" lat="15.035400">
                <ele>109.199997</ele>
                <time>2010-11-20T06:36:41Z</time>
            </trkpt>
            <trkpt lon="100.874719" lat="15.035731">
                <ele>110.199997</ele>
                <time>2010-11-20T06:37:01Z</time>
            </trkpt>
            <trkpt lon="100.873145" lat="15.036384">
                <ele>113.599998</ele>
                <time>2010-11-20T06:38:10Z</time>
            </trkpt>
            <trkpt lon="100.873423" lat="15.037494">
                <ele>115.599998</ele>
                <time>2010-11-20T06:39:13Z</time>
            </trkpt>
            <trkpt lon="100.873512" lat="15.038979">
                <ele>117.199997</ele>
                <time>2010-11-20T06:40:13Z</time>
            </trkpt>
            <trkpt lon="100.872934" lat="15.039138">
                <ele>120.199997</ele>
                <time>2010-11-20T06:40:32Z</time>
            </trkpt>
            <trkpt lon="100.872667" lat="15.039561">
                <ele>123.000000</ele>
                <time>2010-11-20T06:40:48Z</time>
            </trkpt>
            <trkpt lon="100.872628" lat="15.039599">
                <ele>123.199997</ele>
                <time>2010-11-20T06:40:50Z</time>
            </trkpt>
            <trkpt lon="100.872633" lat="15.040743">
                <ele>127.599998</ele>
                <time>2010-11-20T06:41:29Z</time>
            </trkpt>
            <trkpt lon="100.872217" lat="15.041541">
                <ele>131.000000</ele>
                <time>2010-11-20T06:42:10Z</time>
            </trkpt>
            <trkpt lon="100.871887" lat="15.041774">
                <ele>132.800003</ele>
                <time>2010-11-20T06:42:24Z</time>
            </trkpt>
            <trkpt lon="100.871819" lat="15.041871">
                <ele>133.199997</ele>
                <time>2010-11-20T06:42:28Z</time>
            </trkpt>
            <trkpt lon="100.871739" lat="15.042522">
                <ele>133.600006</ele>
                <time>2010-11-20T06:42:46Z</time>
            </trkpt>
            <trkpt lon="100.871379" lat="15.042844">
                <ele>136.600006</ele>
                <time>2010-11-20T06:43:05Z</time>
            </trkpt>
            <trkpt lon="100.870582" lat="15.042511">
                <ele>141.399994</ele>
                <time>2010-11-20T06:43:50Z</time>
            </trkpt>
            <trkpt lon="100.869883" lat="15.042062">
                <ele>144.199997</ele>
                <time>2010-11-20T06:44:25Z</time>
            </trkpt>
            <trkpt lon="100.869370" lat="15.042084">
                <ele>146.199997</ele>
                <time>2010-11-20T06:45:58Z</time>
            </trkpt>
            <trkpt lon="100.868617" lat="15.041857">
                <ele>152.199997</ele>
                <time>2010-11-20T06:46:43Z</time>
            </trkpt>
            <trkpt lon="100.869379" lat="15.042124">
                <ele>146.199997</ele>
                <time>2010-11-20T06:48:07Z</time>
            </trkpt>
            <trkpt lon="100.869883" lat="15.042087">
                <ele>144.399994</ele>
                <time>2010-11-20T06:48:22Z</time>
            </trkpt>
            <trkpt lon="100.870419" lat="15.042439">
                <ele>142.399994</ele>
                <time>2010-11-20T06:48:44Z</time>
            </trkpt>
            <trkpt lon="100.871351" lat="15.042858">
                <ele>136.800003</ele>
                <time>2010-11-20T07:00:39Z</time>
            </trkpt>
            <trkpt lon="100.871816" lat="15.042427">
                <ele>133.000000</ele>
                <time>2010-11-20T07:18:48Z</time>
            </trkpt>
            <trkpt lon="100.872322" lat="15.042171">
                <ele>130.199997</ele>
                <time>2010-11-20T07:19:10Z</time>
            </trkpt>
            <trkpt lon="100.872677" lat="15.042254">
                <ele>128.800003</ele>
                <time>2010-11-20T07:19:25Z</time>
            </trkpt>
            <trkpt lon="100.873218" lat="15.042105">
                <ele>128.399994</ele>
                <time>2010-11-20T07:19:45Z</time>
            </trkpt>
            <trkpt lon="100.873408" lat="15.042113">
                <ele>127.800003</ele>
                <time>2010-11-20T07:19:52Z</time>
            </trkpt>
            <trkpt lon="100.873609" lat="15.042278">
                <ele>126.000000</ele>
                <time>2010-11-20T07:20:01Z</time>
            </trkpt>
            <trkpt lon="100.874212" lat="15.042331">
                <ele>122.800003</ele>
                <time>2010-11-20T07:20:27Z</time>
            </trkpt>
            <trkpt lon="100.875471" lat="15.042086">
                <ele>121.400002</ele>
                <time>2010-11-20T07:21:49Z</time>
            </trkpt>
            <trkpt lon="100.876158" lat="15.041409">
                <ele>121.000000</ele>
                <time>2010-11-20T07:23:34Z</time>
            </trkpt>
            <trkpt lon="100.877062" lat="15.041440">
                <ele>118.199997</ele>
                <time>2010-11-20T07:24:06Z</time>
            </trkpt>
            <trkpt lon="100.877743" lat="15.040891">
                <ele>120.199997</ele>
                <time>2010-11-20T07:24:38Z</time>
            </trkpt>
            <trkpt lon="100.878017" lat="15.040838">
                <ele>120.199997</ele>
                <time>2010-11-20T07:24:45Z</time>
            </trkpt>
            <trkpt lon="100.878157" lat="15.040871">
                <ele>119.800003</ele>
                <time>2010-11-20T07:24:47Z</time>
            </trkpt>
            <trkpt lon="100.879435" lat="15.041320">
                <ele>113.000000</ele>
                <time>2010-11-20T07:25:13Z</time>
            </trkpt>
            <trkpt lon="100.880287" lat="15.041180">
                <ele>110.599998</ele>
                <time>2010-11-20T07:25:35Z</time>
            </trkpt>
            <trkpt lon="100.880971" lat="15.041426">
                <ele>108.199997</ele>
                <time>2010-11-20T07:26:01Z</time>
            </trkpt>
            <trkpt lon="100.881243" lat="15.041424">
                <ele>107.199997</ele>
                <time>2010-11-20T07:26:05Z</time>
            </trkpt>
            <trkpt lon="100.882740" lat="15.041285">
                <ele>101.199997</ele>
                <time>2010-11-20T07:26:24Z</time>
            </trkpt>
            <trkpt lon="100.883729" lat="15.042035">
                <ele>99.599998</ele>
                <time>2010-11-20T07:26:39Z</time>
            </trkpt>
            <trkpt lon="100.884383" lat="15.042703">
                <ele>99.000000</ele>
                <time>2010-11-20T07:26:50Z</time>
            </trkpt>
            <trkpt lon="100.884576" lat="15.043321">
                <ele>99.800003</ele>
                <time>2010-11-20T07:26:58Z</time>
            </trkpt>
            <trkpt lon="100.885450" lat="15.044463">
                <ele>97.000000</ele>
                <time>2010-11-20T07:27:19Z</time>
            </trkpt>
            <trkpt lon="100.886082" lat="15.044374">
                <ele>97.000000</ele>
                <time>2010-11-20T07:27:27Z</time>
            </trkpt>
            <trkpt lon="100.886273" lat="15.045100">
                <ele>97.000000</ele>
                <time>2010-11-20T07:27:39Z</time>
            </trkpt>
            <trkpt lon="100.886871" lat="15.044963">
                <ele>96.400002</ele>
                <time>2010-11-20T07:27:50Z</time>
            </trkpt>
            <trkpt lon="100.890492" lat="15.043294">
                <ele>100.599998</ele>
                <time>2010-11-20T07:28:48Z</time>
            </trkpt>
            <trkpt lon="100.890401" lat="15.042993">
                <ele>101.400002</ele>
                <time>2010-11-20T07:29:07Z</time>
            </trkpt>
            <trkpt lon="100.890282" lat="15.043139">
                <ele>101.000000</ele>
                <time>2010-11-20T07:29:27Z</time>
            </trkpt>
            <trkpt lon="100.890481" lat="15.043027">
                <ele>101.400002</ele>
                <time>2010-11-20T07:30:22Z</time>
            </trkpt>
            <trkpt lon="100.890364" lat="15.043054">
                <ele>101.199997</ele>
                <time>2010-11-20T07:31:56Z</time>
            </trkpt>
            <trkpt lon="100.890559" lat="15.043074">
                <ele>101.199997</ele>
                <time>2010-11-20T07:35:59Z</time>
            </trkpt>
            <trkpt lon="100.890289" lat="15.043150">
                <ele>100.800003</ele>
                <time>2010-11-20T07:49:28Z</time>
            </trkpt>
            <trkpt lon="100.890399" lat="15.043137">
                <ele>101.000000</ele>
                <time>2010-11-20T07:49:39Z</time>
            </trkpt>
            <trkpt lon="100.890397" lat="15.043349">
                <ele>100.400002</ele>
                <time>2010-11-20T07:49:46Z</time>
            </trkpt>
            <trkpt lon="100.886846" lat="15.044928">
                <ele>96.599998</ele>
                <time>2010-11-20T07:50:46Z</time>
            </trkpt>
            <trkpt lon="100.881478" lat="15.046600">
                <ele>98.599998</ele>
                <time>2010-11-20T07:52:17Z</time>
            </trkpt>
            <trkpt lon="100.880972" lat="15.046867">
                <ele>99.599998</ele>
                <time>2010-11-20T07:52:31Z</time>
            </trkpt>
            <trkpt lon="100.880519" lat="15.046291">
                <ele>102.199997</ele>
                <time>2010-11-20T07:52:58Z</time>
            </trkpt>
            <trkpt lon="100.879910" lat="15.046330">
                <ele>104.599998</ele>
                <time>2010-11-20T07:53:15Z</time>
            </trkpt>
            <trkpt lon="100.879561" lat="15.046424">
                <ele>105.199997</ele>
                <time>2010-11-20T07:53:23Z</time>
            </trkpt>
            <trkpt lon="100.879095" lat="15.046283">
                <ele>107.000000</ele>
                <time>2010-11-20T07:53:40Z</time>
            </trkpt>
            <trkpt lon="100.878996" lat="15.046268">
                <ele>107.199997</ele>
                <time>2010-11-20T07:53:47Z</time>
            </trkpt>
            <trkpt lon="100.878893" lat="15.046406">
                <ele>106.599998</ele>
                <time>2010-11-20T07:53:58Z</time>
            </trkpt>
            <trkpt lon="100.879592" lat="15.047609">
                <ele>100.400002</ele>
                <time>2010-11-20T07:54:27Z</time>
            </trkpt>
            <trkpt lon="100.879160" lat="15.048577">
                <ele>98.400002</ele>
                <time>2010-11-20T07:54:46Z</time>
            </trkpt>
            <trkpt lon="100.878841" lat="15.048735">
                <ele>99.000000</ele>
                <time>2010-11-20T07:54:52Z</time>
            </trkpt>
            <trkpt lon="100.878417" lat="15.048674">
                <ele>100.400002</ele>
                <time>2010-11-20T07:54:59Z</time>
            </trkpt>
            <trkpt lon="100.876789" lat="15.048274">
                <ele>103.599998</ele>
                <time>2010-11-20T07:55:30Z</time>
            </trkpt>
            <trkpt lon="100.877698" lat="15.048638">
                <ele>101.199997</ele>
                <time>2010-11-20T07:56:41Z</time>
            </trkpt>
            <trkpt lon="100.878035" lat="15.049515">
                <ele>100.000000</ele>
                <time>2010-11-20T07:57:03Z</time>
            </trkpt>
            <trkpt lon="100.870403" lat="15.051311">
                <ele>115.800003</ele>
                <time>2010-11-20T07:58:58Z</time>
            </trkpt>
            <trkpt lon="100.869340" lat="15.051561">
                <ele>116.199997</ele>
                <time>2010-11-20T07:59:17Z</time>
            </trkpt>
            <trkpt lon="100.868858" lat="15.052016">
                <ele>114.000000</ele>
                <time>2010-11-20T07:59:28Z</time>
            </trkpt>
            <trkpt lon="100.868616" lat="15.050885">
                <ele>118.000000</ele>
                <time>2010-11-20T08:00:18Z</time>
            </trkpt>
            <trkpt lon="100.868810" lat="15.050526">
                <ele>118.599998</ele>
                <time>2010-11-20T08:00:40Z</time>
            </trkpt>
            <trkpt lon="100.868830" lat="15.049878">
                <ele>120.599998</ele>
                <time>2010-11-20T08:01:04Z</time>
            </trkpt>
            <trkpt lon="100.868601" lat="15.049177">
                <ele>124.800003</ele>
                <time>2010-11-20T08:01:40Z</time>
            </trkpt>
            <trkpt lon="100.868932" lat="15.048534">
                <ele>124.800003</ele>
                <time>2010-11-20T08:02:15Z</time>
            </trkpt>
            <trkpt lon="100.868616" lat="15.049267">
                <ele>124.400002</ele>
                <time>2010-11-20T08:02:49Z</time>
            </trkpt>
            <trkpt lon="100.868856" lat="15.049876">
                <ele>120.400002</ele>
                <time>2010-11-20T08:03:10Z</time>
            </trkpt>
            <trkpt lon="100.868822" lat="15.050533">
                <ele>118.599998</ele>
                <time>2010-11-20T08:03:37Z</time>
            </trkpt>
            <trkpt lon="100.868649" lat="15.050873">
                <ele>118.000000</ele>
                <time>2010-11-20T08:04:00Z</time>
            </trkpt>
            <trkpt lon="100.868880" lat="15.051539">
                <ele>115.199997</ele>
                <time>2010-11-20T08:04:18Z</time>
            </trkpt>
            <trkpt lon="100.868841" lat="15.052516">
                <ele>112.599998</ele>
                <time>2010-11-20T08:04:39Z</time>
            </trkpt>
            <trkpt lon="100.868856" lat="15.055660">
                <ele>98.400002</ele>
                <time>2010-11-20T08:05:18Z</time>
            </trkpt>
            <trkpt lon="100.868354" lat="15.056548">
                <ele>98.800003</ele>
                <time>2010-11-20T08:05:32Z</time>
            </trkpt>
            <trkpt lon="100.867709" lat="15.057396">
                <ele>96.400002</ele>
                <time>2010-11-20T08:05:48Z</time>
            </trkpt>
            <trkpt lon="100.868446" lat="15.057822">
                <ele>96.800003</ele>
                <time>2010-11-20T08:06:07Z</time>
            </trkpt>
            <trkpt lon="100.869527" lat="15.057999">
                <ele>96.199997</ele>
                <time>2010-11-20T08:06:25Z</time>
            </trkpt>
            <trkpt lon="100.869750" lat="15.057964">
                <ele>96.000000</ele>
                <time>2010-11-20T08:06:29Z</time>
            </trkpt>
            <trkpt lon="100.870267" lat="15.057570">
                <ele>96.800003</ele>
                <time>2010-11-20T08:06:40Z</time>
            </trkpt>
            <trkpt lon="100.870975" lat="15.056565">
                <ele>102.599998</ele>
                <time>2010-11-20T08:07:04Z</time>
            </trkpt>
            <trkpt lon="100.872389" lat="15.056931">
                <ele>100.800003</ele>
                <time>2010-11-20T08:07:39Z</time>
            </trkpt>
            <trkpt lon="100.872874" lat="15.056821">
                <ele>102.800003</ele>
                <time>2010-11-20T08:08:02Z</time>
            </trkpt>
            <trkpt lon="100.872884" lat="15.056836">
                <ele>102.800003</ele>
                <time>2010-11-20T08:08:03Z</time>
            </trkpt>
            <trkpt lon="100.873124" lat="15.057496">
                <ele>101.400002</ele>
                <time>2010-11-20T08:08:27Z</time>
            </trkpt>
            <trkpt lon="100.873457" lat="15.058107">
                <ele>98.599998</ele>
                <time>2010-11-20T08:08:51Z</time>
            </trkpt>
            <trkpt lon="100.874044" lat="15.058713">
                <ele>96.400002</ele>
                <time>2010-11-20T08:09:18Z</time>
            </trkpt>
            <trkpt lon="100.873999" lat="15.059043">
                <ele>94.199997</ele>
                <time>2010-11-20T08:09:29Z</time>
            </trkpt>
            <trkpt lon="100.873661" lat="15.059259">
                <ele>92.199997</ele>
                <time>2010-11-20T08:09:40Z</time>
            </trkpt>
            <trkpt lon="100.873582" lat="15.059376">
                <ele>91.199997</ele>
                <time>2010-11-20T08:09:44Z</time>
            </trkpt>
            <trkpt lon="100.873717" lat="15.059971">
                <ele>88.000000</ele>
                <time>2010-11-20T08:10:01Z</time>
            </trkpt>
            <trkpt lon="100.873417" lat="15.060273">
                <ele>86.800003</ele>
                <time>2010-11-20T08:10:12Z</time>
            </trkpt>
            <trkpt lon="100.871415" lat="15.060927">
                <ele>89.199997</ele>
                <time>2010-11-20T08:12:26Z</time>
            </trkpt>
            <trkpt lon="100.870599" lat="15.061397">
                <ele>89.000000</ele>
                <time>2010-11-20T08:12:46Z</time>
            </trkpt>
            <trkpt lon="100.870027" lat="15.061283">
                <ele>89.800003</ele>
                <time>2010-11-20T08:12:58Z</time>
            </trkpt>
            <trkpt lon="100.866507" lat="15.061598">
                <ele>87.599998</ele>
                <time>2010-11-20T08:14:03Z</time>
            </trkpt>
            <trkpt lon="100.865152" lat="15.061079">
                <ele>90.199997</ele>
                <time>2010-11-20T08:14:30Z</time>
            </trkpt>
            <trkpt lon="100.864703" lat="15.060384">
                <ele>90.599998</ele>
                <time>2010-11-20T08:14:45Z</time>
            </trkpt>
            <trkpt lon="100.864493" lat="15.060340">
                <ele>90.199997</ele>
                <time>2010-11-20T08:14:50Z</time>
            </trkpt>
            <trkpt lon="100.863382" lat="15.061001">
                <ele>88.800003</ele>
                <time>2010-11-20T08:15:11Z</time>
            </trkpt>
            <trkpt lon="100.861541" lat="15.061831">
                <ele>87.400002</ele>
                <time>2010-11-20T08:15:36Z</time>
            </trkpt>
            <trkpt lon="100.861130" lat="15.061965">
                <ele>86.000000</ele>
                <time>2010-11-20T08:15:41Z</time>
            </trkpt>
            <trkpt lon="100.860279" lat="15.062061">
                <ele>84.400002</ele>
                <time>2010-11-20T08:15:51Z</time>
            </trkpt>
            <trkpt lon="100.857105" lat="15.061988">
                <ele>83.800003</ele>
                <time>2010-11-20T08:16:28Z</time>
            </trkpt>
            <trkpt lon="100.856598" lat="15.062114">
                <ele>83.800003</ele>
                <time>2010-11-20T08:16:35Z</time>
            </trkpt>
            <trkpt lon="100.856571" lat="15.062686">
                <ele>82.800003</ele>
                <time>2010-11-20T08:16:45Z</time>
            </trkpt>
            <trkpt lon="100.855791" lat="15.063106">
                <ele>82.599998</ele>
                <time>2010-11-20T08:16:58Z</time>
            </trkpt>
            <trkpt lon="100.855598" lat="15.063194">
                <ele>82.199997</ele>
                <time>2010-11-20T08:17:01Z</time>
            </trkpt>
            <trkpt lon="100.850065" lat="15.064262">
                <ele>76.599998</ele>
                <time>2010-11-20T08:18:28Z</time>
            </trkpt>
            <trkpt lon="100.846656" lat="15.065071">
                <ele>74.800003</ele>
                <time>2010-11-20T08:19:12Z</time>
            </trkpt>
            <trkpt lon="100.845552" lat="15.065348">
                <ele>72.800003</ele>
                <time>2010-11-20T08:19:24Z</time>
            </trkpt>
            <trkpt lon="100.845236" lat="15.065661">
                <ele>72.400002</ele>
                <time>2010-11-20T08:19:29Z</time>
            </trkpt>
            <trkpt lon="100.845167" lat="15.065751">
                <ele>72.199997</ele>
                <time>2010-11-20T08:19:31Z</time>
            </trkpt>
            <trkpt lon="100.844818" lat="15.064588">
                <ele>73.199997</ele>
                <time>2010-11-20T08:19:52Z</time>
            </trkpt>
            <trkpt lon="100.844937" lat="15.063054">
                <ele>76.199997</ele>
                <time>2010-11-20T08:20:16Z</time>
            </trkpt>
            <trkpt lon="100.844714" lat="15.061763">
                <ele>78.400002</ele>
                <time>2010-11-20T08:20:49Z</time>
            </trkpt>
            <trkpt lon="100.844716" lat="15.061571">
                <ele>78.599998</ele>
                <time>2010-11-20T08:20:52Z</time>
            </trkpt>
            <trkpt lon="100.844520" lat="15.058679">
                <ele>78.599998</ele>
                <time>2010-11-20T08:21:45Z</time>
            </trkpt>
            <trkpt lon="100.842318" lat="15.058791">
                <ele>76.599998</ele>
                <time>2010-11-20T08:22:38Z</time>
            </trkpt>
            <trkpt lon="100.841542" lat="15.058752">
                <ele>75.199997</ele>
                <time>2010-11-20T08:22:55Z</time>
            </trkpt>
            <trkpt lon="100.839866" lat="15.057933">
                <ele>74.000000</ele>
                <time>2010-11-20T08:23:40Z</time>
            </trkpt>
            <trkpt lon="100.837993" lat="15.057904">
                <ele>74.000000</ele>
                <time>2010-11-20T08:24:57Z</time>
            </trkpt>
            <trkpt lon="100.837783" lat="15.060448">
                <ele>71.599998</ele>
                <time>2010-11-20T08:26:21Z</time>
            </trkpt>
            <trkpt lon="100.837541" lat="15.061632">
                <ele>73.599998</ele>
                <time>2010-11-20T08:26:37Z</time>
            </trkpt>
            <trkpt lon="100.837969" lat="15.062602">
                <ele>71.199997</ele>
                <time>2010-11-20T08:26:51Z</time>
            </trkpt>
            <trkpt lon="100.837887" lat="15.063012">
                <ele>70.800003</ele>
                <time>2010-11-20T08:26:57Z</time>
            </trkpt>
            <trkpt lon="100.837391" lat="15.062606">
                <ele>72.199997</ele>
                <time>2010-11-20T08:27:10Z</time>
            </trkpt>
            <trkpt lon="100.836776" lat="15.062559">
                <ele>70.199997</ele>
                <time>2010-11-20T08:27:22Z</time>
            </trkpt>
            <trkpt lon="100.836104" lat="15.062160">
                <ele>70.400002</ele>
                <time>2010-11-20T08:27:34Z</time>
            </trkpt>
            <trkpt lon="100.834472" lat="15.062259">
                <ele>70.599998</ele>
                <time>2010-11-20T08:27:57Z</time>
            </trkpt>
            <trkpt lon="100.834265" lat="15.062332">
                <ele>70.800003</ele>
                <time>2010-11-20T08:28:00Z</time>
            </trkpt>
            <trkpt lon="100.834199" lat="15.062492">
                <ele>70.800003</ele>
                <time>2010-11-20T08:28:02Z</time>
            </trkpt>
            <trkpt lon="100.834164" lat="15.062683">
                <ele>70.400002</ele>
                <time>2010-11-20T08:28:05Z</time>
            </trkpt>
            <trkpt lon="100.833367" lat="15.063168">
                <ele>69.000000</ele>
                <time>2010-11-20T08:28:23Z</time>
            </trkpt>
            <trkpt lon="100.833076" lat="15.063483">
                <ele>68.800003</ele>
                <time>2010-11-20T08:28:33Z</time>
            </trkpt>
            <trkpt lon="100.832874" lat="15.064058">
                <ele>68.599998</ele>
                <time>2010-11-20T08:28:51Z</time>
            </trkpt>
            <trkpt lon="100.832481" lat="15.064164">
                <ele>69.000000</ele>
                <time>2010-11-20T08:29:11Z</time>
            </trkpt>
            <trkpt lon="100.832906" lat="15.064058">
                <ele>68.400002</ele>
                <time>2010-11-20T08:29:25Z</time>
            </trkpt>
            <trkpt lon="100.833116" lat="15.063500">
                <ele>68.800003</ele>
                <time>2010-11-20T08:29:37Z</time>
            </trkpt>
            <trkpt lon="100.833405" lat="15.063186">
                <ele>69.000000</ele>
                <time>2010-11-20T08:29:45Z</time>
            </trkpt>
            <trkpt lon="100.834200" lat="15.062685">
                <ele>70.400002</ele>
                <time>2010-11-20T08:30:04Z</time>
            </trkpt>
            <trkpt lon="100.834257" lat="15.062465">
                <ele>70.800003</ele>
                <time>2010-11-20T08:30:09Z</time>
            </trkpt>
            <trkpt lon="100.834343" lat="15.062334">
                <ele>70.599998</ele>
                <time>2010-11-20T08:30:13Z</time>
            </trkpt>
            <trkpt lon="100.834694" lat="15.062267">
                <ele>70.199997</ele>
                <time>2010-11-20T08:30:21Z</time>
            </trkpt>
            <trkpt lon="100.834462" lat="15.059265">
                <ele>73.400002</ele>
                <time>2010-11-20T08:31:25Z</time>
            </trkpt>
            <trkpt lon="100.834913" lat="15.059079">
                <ele>74.599998</ele>
                <time>2010-11-20T08:33:44Z</time>
            </trkpt>
            <trkpt lon="100.835549" lat="15.058553">
                <ele>73.000000</ele>
                <time>2010-11-20T08:34:22Z</time>
            </trkpt>
            <trkpt lon="100.836473" lat="15.057464">
                <ele>74.599998</ele>
                <time>2010-11-20T08:35:28Z</time>
            </trkpt>
            <trkpt lon="100.836991" lat="15.056710">
                <ele>73.400002</ele>
                <time>2010-11-20T08:35:59Z</time>
            </trkpt>
            <trkpt lon="100.836649" lat="15.057144">
                <ele>74.000000</ele>
                <time>2010-11-20T08:36:23Z</time>
            </trkpt>
            <trkpt lon="100.835863" lat="15.056563">
                <ele>70.800003</ele>
                <time>2010-11-20T08:37:25Z</time>
            </trkpt>
            <trkpt lon="100.835316" lat="15.057503">
                <ele>73.800003</ele>
                <time>2010-11-20T08:37:43Z</time>
            </trkpt>
            <trkpt lon="100.834909" lat="15.058218">
                <ele>73.000000</ele>
                <time>2010-11-20T08:37:56Z</time>
            </trkpt>
            <trkpt lon="100.833371" lat="15.059085">
                <ele>73.800003</ele>
                <time>2010-11-20T08:38:23Z</time>
            </trkpt>
            <trkpt lon="100.833463" lat="15.059595">
                <ele>74.000000</ele>
                <time>2010-11-20T08:38:35Z</time>
            </trkpt>
            <trkpt lon="100.833156" lat="15.059834">
                <ele>75.000000</ele>
                <time>2010-11-20T08:38:44Z</time>
            </trkpt>
            <trkpt lon="100.832833" lat="15.060023">
                <ele>75.400002</ele>
                <time>2010-11-20T08:38:51Z</time>
            </trkpt>
            <trkpt lon="100.830955" lat="15.061177">
                <ele>72.599998</ele>
                <time>2010-11-20T08:39:30Z</time>
            </trkpt>
            <trkpt lon="100.829071" lat="15.061535">
                <ele>73.400002</ele>
                <time>2010-11-20T08:40:01Z</time>
            </trkpt>
            <trkpt lon="100.828126" lat="15.061988">
                <ele>72.800003</ele>
                <time>2010-11-20T08:40:24Z</time>
            </trkpt>
            <trkpt lon="100.827506" lat="15.062453">
                <ele>73.800003</ele>
                <time>2010-11-20T08:40:37Z</time>
            </trkpt>
            <trkpt lon="100.827406" lat="15.062539">
                <ele>73.800003</ele>
                <time>2010-11-20T08:40:39Z</time>
            </trkpt>
            <trkpt lon="100.826826" lat="15.063013">
                <ele>72.400002</ele>
                <time>2010-11-20T08:40:49Z</time>
            </trkpt>
            <trkpt lon="100.825733" lat="15.063552">
                <ele>71.800003</ele>
                <time>2010-11-20T08:41:03Z</time>
            </trkpt>
            <trkpt lon="100.824035" lat="15.063918">
                <ele>69.199997</ele>
                <time>2010-11-20T08:41:23Z</time>
            </trkpt>
            <trkpt lon="100.823182" lat="15.063933">
                <ele>69.000000</ele>
                <time>2010-11-20T08:41:34Z</time>
            </trkpt>
            <trkpt lon="100.822125" lat="15.063925">
                <ele>67.800003</ele>
                <time>2010-11-20T08:42:59Z</time>
            </trkpt>
            <trkpt lon="100.821882" lat="15.064037">
                <ele>67.400002</ele>
                <time>2010-11-20T08:43:03Z</time>
            </trkpt>
            <trkpt lon="100.821666" lat="15.064375">
                <ele>66.400002</ele>
                <time>2010-11-20T08:43:09Z</time>
            </trkpt>
            <trkpt lon="100.820064" lat="15.064950">
                <ele>65.599998</ele>
                <time>2010-11-20T08:43:32Z</time>
            </trkpt>
            <trkpt lon="100.819173" lat="15.063377">
                <ele>67.800003</ele>
                <time>2010-11-20T08:43:59Z</time>
            </trkpt>
            <trkpt lon="100.818442" lat="15.062560">
                <ele>67.800003</ele>
                <time>2010-11-20T08:44:22Z</time>
            </trkpt>
            <trkpt lon="100.819132" lat="15.061840">
                <ele>68.199997</ele>
                <time>2010-11-20T08:44:41Z</time>
            </trkpt>
            <trkpt lon="100.819900" lat="15.061263">
                <ele>70.400002</ele>
                <time>2010-11-20T08:44:57Z</time>
            </trkpt>
            <trkpt lon="100.821768" lat="15.059756">
                <ele>72.599998</ele>
                <time>2010-11-20T08:45:33Z</time>
            </trkpt>
            <trkpt lon="100.822376" lat="15.059186">
                <ele>72.400002</ele>
                <time>2010-11-20T08:45:45Z</time>
            </trkpt>
            <trkpt lon="100.825097" lat="15.057196">
                <ele>78.000000</ele>
                <time>2010-11-20T08:46:34Z</time>
            </trkpt>
            <trkpt lon="100.824414" lat="15.056764">
                <ele>80.800003</ele>
                <time>2010-11-20T08:47:14Z</time>
            </trkpt>
            <trkpt lon="100.823664" lat="15.055801">
                <ele>86.400002</ele>
                <time>2010-11-20T08:47:59Z</time>
            </trkpt>
            <trkpt lon="100.823317" lat="15.055441">
                <ele>88.000000</ele>
                <time>2010-11-20T08:48:11Z</time>
            </trkpt>
            <trkpt lon="100.822456" lat="15.055051">
                <ele>93.199997</ele>
                <time>2010-11-20T08:48:44Z</time>
            </trkpt>
            <trkpt lon="100.822262" lat="15.054749">
                <ele>92.199997</ele>
                <time>2010-11-20T08:48:56Z</time>
            </trkpt>
            <trkpt lon="100.822292" lat="15.054271">
                <ele>87.800003</ele>
                <time>2010-11-20T08:49:11Z</time>
            </trkpt>
            <trkpt lon="100.822076" lat="15.054129">
                <ele>86.800003</ele>
                <time>2010-11-20T08:49:18Z</time>
            </trkpt>
            <trkpt lon="100.820240" lat="15.054239">
                <ele>92.199997</ele>
                <time>2010-11-20T08:50:10Z</time>
            </trkpt>
            <trkpt lon="100.819508" lat="15.053786">
                <ele>92.000000</ele>
                <time>2010-11-20T08:50:35Z</time>
            </trkpt>
            <trkpt lon="100.819298" lat="15.052954">
                <ele>93.800003</ele>
                <time>2010-11-20T08:51:07Z</time>
            </trkpt>
            <trkpt lon="100.818519" lat="15.052900">
                <ele>97.199997</ele>
                <time>2010-11-20T08:51:34Z</time>
            </trkpt>
            <trkpt lon="100.818152" lat="15.052704">
                <ele>99.000000</ele>
                <time>2010-11-20T08:51:46Z</time>
            </trkpt>
            <trkpt lon="100.817179" lat="15.052531">
                <ele>102.400002</ele>
                <time>2010-11-20T08:52:17Z</time>
            </trkpt>
            <trkpt lon="100.816007" lat="15.051899">
                <ele>110.800003</ele>
                <time>2010-11-20T08:54:03Z</time>
            </trkpt>
            <trkpt lon="100.814779" lat="15.051831">
                <ele>122.000000</ele>
                <time>2010-11-20T08:56:43Z</time>
            </trkpt>
            <trkpt lon="100.814468" lat="15.051650">
                <ele>124.800003</ele>
                <time>2010-11-20T08:57:41Z</time>
            </trkpt>
            <trkpt lon="100.814442" lat="15.051162">
                <ele>126.199997</ele>
                <time>2010-11-20T08:59:02Z</time>
            </trkpt>
            <trkpt lon="100.814733" lat="15.051272">
                <ele>123.199997</ele>
                <time>2010-11-20T09:00:02Z</time>
            </trkpt>
            <trkpt lon="100.814444" lat="15.051571">
                <ele>125.199997</ele>
                <time>2010-11-20T09:01:16Z</time>
            </trkpt>
            <trkpt lon="100.814457" lat="15.051684">
                <ele>124.800003</ele>
                <time>2010-11-20T09:01:28Z</time>
            </trkpt>
            <trkpt lon="100.815107" lat="15.051866">
                <ele>119.000000</ele>
                <time>2010-11-20T09:02:43Z</time>
            </trkpt>
            <trkpt lon="100.816185" lat="15.050566">
                <ele>112.199997</ele>
                <time>2010-11-20T09:03:24Z</time>
            </trkpt>
            <trkpt lon="100.816715" lat="15.050166">
                <ele>110.199997</ele>
                <time>2010-11-20T09:03:42Z</time>
            </trkpt>
            <trkpt lon="100.816995" lat="15.048707">
                <ele>115.599998</ele>
                <time>2010-11-20T09:04:36Z</time>
            </trkpt>
            <trkpt lon="100.817413" lat="15.048251">
                <ele>115.800003</ele>
                <time>2010-11-20T09:04:54Z</time>
            </trkpt>
            <trkpt lon="100.818962" lat="15.047541">
                <ele>111.800003</ele>
                <time>2010-11-20T09:05:33Z</time>
            </trkpt>
            <trkpt lon="100.820481" lat="15.047466">
                <ele>108.400002</ele>
                <time>2010-11-20T09:06:01Z</time>
            </trkpt>
            <trkpt lon="100.820500" lat="15.046710">
                <ele>110.000000</ele>
                <time>2010-11-20T09:06:23Z</time>
            </trkpt>
            <trkpt lon="100.821642" lat="15.046689">
                <ele>108.800003</ele>
                <time>2010-11-20T09:06:54Z</time>
            </trkpt>
            <trkpt lon="100.823729" lat="15.046632">
                <ele>102.000000</ele>
                <time>2010-11-20T09:07:35Z</time>
            </trkpt>
            <trkpt lon="100.824140" lat="15.046478">
                <ele>101.199997</ele>
                <time>2010-11-20T09:07:47Z</time>
            </trkpt>
            <trkpt lon="100.823931" lat="15.044371">
                <ele>103.800003</ele>
                <time>2010-11-20T09:08:38Z</time>
            </trkpt>
            <trkpt lon="100.823561" lat="15.042990">
                <ele>108.199997</ele>
                <time>2010-11-20T09:09:15Z</time>
            </trkpt>
            <trkpt lon="100.823149" lat="15.042068">
                <ele>111.199997</ele>
                <time>2010-11-20T09:09:48Z</time>
            </trkpt>
            <trkpt lon="100.823230" lat="15.041651">
                <ele>112.800003</ele>
                <time>2010-11-20T09:10:05Z</time>
            </trkpt>
            <trkpt lon="100.823375" lat="15.041077">
                <ele>112.800003</ele>
                <time>2010-11-20T09:10:24Z</time>
            </trkpt>
            <trkpt lon="100.822793" lat="15.040245">
                <ele>114.199997</ele>
                <time>2010-11-20T09:13:07Z</time>
            </trkpt>
            <trkpt lon="100.822650" lat="15.039101">
                <ele>119.599998</ele>
                <time>2010-11-20T09:20:26Z</time>
            </trkpt>
            <trkpt lon="100.823135" lat="15.037842">
                <ele>121.000000</ele>
                <time>2010-11-20T09:21:00Z</time>
            </trkpt>
            <trkpt lon="100.825868" lat="15.035775">
                <ele>107.199997</ele>
                <time>2010-11-20T09:23:08Z</time>
            </trkpt>
            <trkpt lon="100.826365" lat="15.035211">
                <ele>107.400002</ele>
                <time>2010-11-20T09:23:25Z</time>
            </trkpt>
            <trkpt lon="100.826786" lat="15.034453">
                <ele>111.000000</ele>
                <time>2010-11-20T09:23:46Z</time>
            </trkpt>
            <trkpt lon="100.829266" lat="15.033382">
                <ele>107.800003</ele>
                <time>2010-11-20T09:24:47Z</time>
            </trkpt>
            <trkpt lon="100.828723" lat="15.032165">
                <ele>116.199997</ele>
                <time>2010-11-20T09:25:32Z</time>
            </trkpt>
            <trkpt lon="100.829243" lat="15.031440">
                <ele>117.599998</ele>
                <time>2010-11-20T09:25:54Z</time>
            </trkpt>
            <trkpt lon="100.829647" lat="15.031234">
                <ele>116.000000</ele>
                <time>2010-11-20T09:26:03Z</time>
            </trkpt>
            <trkpt lon="100.830099" lat="15.031976">
                <ele>111.199997</ele>
                <time>2010-11-20T09:26:16Z</time>
            </trkpt>
            <trkpt lon="100.831088" lat="15.031645">
                <ele>104.400002</ele>
                <time>2010-11-20T09:26:31Z</time>
            </trkpt>
            <trkpt lon="100.831992" lat="15.034179">
                <ele>93.400002</ele>
                <time>2010-11-20T09:27:09Z</time>
            </trkpt>
            <trkpt lon="100.833756" lat="15.033749">
                <ele>89.800003</ele>
                <time>2010-11-20T09:27:33Z</time>
            </trkpt>
            <trkpt lon="100.833838" lat="15.032565">
                <ele>91.400002</ele>
                <time>2010-11-20T09:27:51Z</time>
            </trkpt>
            <trkpt lon="100.833688" lat="15.030667">
                <ele>90.400002</ele>
                <time>2010-11-20T09:28:20Z</time>
            </trkpt>
            <trkpt lon="100.831915" lat="15.024241">
                <ele>141.399994</ele>
                <time>2010-11-20T09:32:22Z</time>
            </trkpt>
            <trkpt lon="100.831773" lat="15.022151">
                <ele>153.600006</ele>
                <time>2010-11-20T09:33:59Z</time>
            </trkpt>
            <trkpt lon="100.831235" lat="15.022092">
                <ele>157.399994</ele>
                <time>2010-11-20T09:34:31Z</time>
            </trkpt>
            <trkpt lon="100.830945" lat="15.021898">
                <ele>160.199997</ele>
                <time>2010-11-20T09:34:49Z</time>
            </trkpt>
            <trkpt lon="100.830892" lat="15.021660">
                <ele>161.600006</ele>
                <time>2010-11-20T09:35:01Z</time>
            </trkpt>
            <trkpt lon="100.830753" lat="15.021646">
                <ele>163.600006</ele>
                <time>2010-11-20T09:35:08Z</time>
            </trkpt>
            <trkpt lon="100.830597" lat="15.021818">
                <ele>165.000000</ele>
                <time>2010-11-20T09:35:22Z</time>
            </trkpt>
            <trkpt lon="100.830706" lat="15.021676">
                <ele>164.000000</ele>
                <time>2010-11-20T09:35:37Z</time>
            </trkpt>
            <trkpt lon="100.830875" lat="15.021679">
                <ele>161.600006</ele>
                <time>2010-11-20T09:35:46Z</time>
            </trkpt>
            <trkpt lon="100.830910" lat="15.021928">
                <ele>160.199997</ele>
                <time>2010-11-20T09:35:56Z</time>
            </trkpt>
            <trkpt lon="100.831188" lat="15.022122">
                <ele>157.600006</ele>
                <time>2010-11-20T09:36:10Z</time>
            </trkpt>
            <trkpt lon="100.831721" lat="15.022144">
                <ele>154.199997</ele>
                <time>2010-11-20T09:36:28Z</time>
            </trkpt>
            <trkpt lon="100.831898" lat="15.023287">
                <ele>144.800003</ele>
                <time>2010-11-20T09:37:02Z</time>
            </trkpt>
            <trkpt lon="100.835640" lat="15.025553">
                <ele>110.400002</ele>
                <time>2010-11-20T09:37:48Z</time>
            </trkpt>
            <trkpt lon="100.836089" lat="15.027208">
                <ele>102.199997</ele>
                <time>2010-11-20T09:38:07Z</time>
            </trkpt>
            <trkpt lon="100.836476" lat="15.028003">
                <ele>98.000000</ele>
                <time>2010-11-20T09:38:17Z</time>
            </trkpt>
            <trkpt lon="100.838262" lat="15.028032">
                <ele>94.800003</ele>
                <time>2010-11-20T09:38:42Z</time>
            </trkpt>
            <trkpt lon="100.838475" lat="15.028904">
                <ele>94.000000</ele>
                <time>2010-11-20T09:38:58Z</time>
            </trkpt>
            <trkpt lon="100.838409" lat="15.029416">
                <ele>93.400002</ele>
                <time>2010-11-20T09:39:05Z</time>
            </trkpt>
            <trkpt lon="100.838385" lat="15.030455">
                <ele>89.199997</ele>
                <time>2010-11-20T09:39:19Z</time>
            </trkpt>
            <trkpt lon="100.839004" lat="15.032624">
                <ele>83.800003</ele>
                <time>2010-11-20T09:39:48Z</time>
            </trkpt>
            <trkpt lon="100.839302" lat="15.032691">
                <ele>83.599998</ele>
                <time>2010-11-20T09:39:54Z</time>
            </trkpt>
            <trkpt lon="100.839885" lat="15.032277">
                <ele>86.199997</ele>
                <time>2010-11-20T09:40:07Z</time>
            </trkpt>
            <trkpt lon="100.840057" lat="15.032171">
                <ele>86.599998</ele>
                <time>2010-11-20T09:40:10Z</time>
            </trkpt>
            <trkpt lon="100.840698" lat="15.031778">
                <ele>86.000000</ele>
                <time>2010-11-20T09:40:21Z</time>
            </trkpt>
            <trkpt lon="100.840875" lat="15.031639">
                <ele>85.800003</ele>
                <time>2010-11-20T09:40:25Z</time>
            </trkpt>
            <trkpt lon="100.840741" lat="15.030873">
                <ele>87.000000</ele>
                <time>2010-11-20T09:40:41Z</time>
            </trkpt>
            <trkpt lon="100.840433" lat="15.030734">
                <ele>87.800003</ele>
                <time>2010-11-20T09:40:49Z</time>
            </trkpt>
            <trkpt lon="100.840039" lat="15.029358">
                <ele>93.199997</ele>
                <time>2010-11-20T09:44:17Z</time>
            </trkpt>
            <trkpt lon="100.839993" lat="15.029108">
                <ele>94.000000</ele>
                <time>2010-11-20T09:44:24Z</time>
            </trkpt>
            <trkpt lon="100.839832" lat="15.028418">
                <ele>94.599998</ele>
                <time>2010-11-20T09:45:55Z</time>
            </trkpt>
            <trkpt lon="100.839873" lat="15.027944">
                <ele>95.000000</ele>
                <time>2010-11-20T09:47:11Z</time>
            </trkpt>
            <trkpt lon="100.840392" lat="15.027784">
                <ele>95.000000</ele>
                <time>2010-11-20T09:47:24Z</time>
            </trkpt>
            <trkpt lon="100.840451" lat="15.027580">
                <ele>95.000000</ele>
                <time>2010-11-20T09:47:29Z</time>
            </trkpt>
            <trkpt lon="100.840097" lat="15.026901">
                <ele>96.400002</ele>
                <time>2010-11-20T09:47:48Z</time>
            </trkpt>
            <trkpt lon="100.839565" lat="15.026742">
                <ele>97.800003</ele>
                <time>2010-11-20T09:48:03Z</time>
            </trkpt>
            <trkpt lon="100.839278" lat="15.026407">
                <ele>99.599998</ele>
                <time>2010-11-20T09:48:15Z</time>
            </trkpt>
            <trkpt lon="100.839281" lat="15.025859">
                <ele>101.599998</ele>
                <time>2010-11-20T09:48:29Z</time>
            </trkpt>
            <trkpt lon="100.839150" lat="15.025720">
                <ele>102.400002</ele>
                <time>2010-11-20T09:48:34Z</time>
            </trkpt>
            <trkpt lon="100.838858" lat="15.025336">
                <ele>103.400002</ele>
                <time>2010-11-20T09:48:47Z</time>
            </trkpt>
            <trkpt lon="100.838493" lat="15.024417">
                <ele>106.000000</ele>
                <time>2010-11-20T09:49:12Z</time>
            </trkpt>
            <trkpt lon="100.838766" lat="15.023042">
                <ele>108.000000</ele>
                <time>2010-11-20T09:49:52Z</time>
            </trkpt>
            <trkpt lon="100.838422" lat="15.021893">
                <ele>110.400002</ele>
                <time>2010-11-20T09:50:28Z</time>
            </trkpt>
            <trkpt lon="100.839479" lat="15.021519">
                <ele>113.800003</ele>
                <time>2010-11-20T09:50:55Z</time>
            </trkpt>
            <trkpt lon="100.840317" lat="15.021207">
                <ele>113.199997</ele>
                <time>2010-11-20T09:51:12Z</time>
            </trkpt>
            <trkpt lon="100.839679" lat="15.019044">
                <ele>122.400002</ele>
                <time>2010-11-20T09:52:30Z</time>
            </trkpt>
            <trkpt lon="100.839635" lat="15.017903">
                <ele>125.800003</ele>
                <time>2010-11-20T09:53:15Z</time>
            </trkpt>
            <trkpt lon="100.839344" lat="15.017083">
                <ele>131.399994</ele>
                <time>2010-11-20T09:53:55Z</time>
            </trkpt>
            <trkpt lon="100.839365" lat="15.016712">
                <ele>133.199997</ele>
                <time>2010-11-20T09:54:19Z</time>
            </trkpt>
            <trkpt lon="100.839408" lat="15.016613">
                <ele>133.399994</ele>
                <time>2010-11-20T09:54:27Z</time>
            </trkpt>
            <trkpt lon="100.839138" lat="15.016221">
                <ele>136.800003</ele>
                <time>2010-11-20T09:54:56Z</time>
            </trkpt>
            <trkpt lon="100.839127" lat="15.016004">
                <ele>137.600006</ele>
                <time>2010-11-20T09:55:07Z</time>
            </trkpt>
            <trkpt lon="100.839754" lat="15.015193">
                <ele>141.399994</ele>
                <time>2010-11-20T09:55:43Z</time>
            </trkpt>
            <trkpt lon="100.839926" lat="15.015035">
                <ele>142.000000</ele>
                <time>2010-11-20T09:55:50Z</time>
            </trkpt>
            <trkpt lon="100.841569" lat="15.013640">
                <ele>138.399994</ele>
                <time>2010-11-20T09:56:49Z</time>
            </trkpt>
            <trkpt lon="100.843190" lat="15.012561">
                <ele>131.800003</ele>
                <time>2010-11-20T09:57:16Z</time>
            </trkpt>
            <trkpt lon="100.843594" lat="15.012330">
                <ele>131.000000</ele>
                <time>2010-11-20T09:57:22Z</time>
            </trkpt>
            <trkpt lon="100.844905" lat="15.011964">
                <ele>127.199997</ele>
                <time>2010-11-20T09:57:40Z</time>
            </trkpt>
            <trkpt lon="100.845590" lat="15.010816">
                <ele>130.800003</ele>
                <time>2010-11-20T09:58:05Z</time>
            </trkpt>
            <trkpt lon="100.846420" lat="15.009936">
                <ele>130.800003</ele>
                <time>2010-11-20T09:58:28Z</time>
            </trkpt>
            <trkpt lon="100.847435" lat="15.008860">
                <ele>126.400002</ele>
                <time>2010-11-20T09:58:54Z</time>
            </trkpt>
            <trkpt lon="100.848108" lat="15.008667">
                <ele>130.600006</ele>
                <time>2010-11-20T09:59:25Z</time>
            </trkpt>
            <trkpt lon="100.848287" lat="15.008468">
                <ele>131.600006</ele>
                <time>2010-11-20T09:59:39Z</time>
            </trkpt>
            <trkpt lon="100.848663" lat="15.007701">
                <ele>138.199997</ele>
                <time>2010-11-20T10:00:23Z</time>
            </trkpt>
            <trkpt lon="100.848471" lat="15.007522">
                <ele>137.199997</ele>
                <time>2010-11-20T10:01:20Z</time>
            </trkpt>
            <trkpt lon="100.848556" lat="15.007386">
                <ele>138.800003</ele>
                <time>2010-11-20T10:01:33Z</time>
            </trkpt>
            <trkpt lon="100.848556" lat="15.007368">
                <ele>138.800003</ele>
                <time>2010-11-20T10:01:35Z</time>
            </trkpt>
        </trkseg>
    </trk>
</gpx>